Time;durP1;ratioP1;P1;durP2;ratioP2;P2;SDS_P1;SDS_P2;PMS_P1;PMS_P2;Temp;Humidity;BMP_temperature;BMP_pressure;BME280_temperature;BME280_humidity;BME280_pressure;Samples;Min_cycle;Max_cycle;Signal;HPM_P1;HPM_P2
2024/04/10 00:01:06;;;;;;;2.33;0.60;;;;;;;10.92;65.00;97758.91;6804946;26;20788;-59
2024/04/10 00:04:09;;;;;;;1.23;0.60;;;;;;;10.82;65.33;97772.88;6805183;26;20229;-59
2024/04/10 00:07:12;;;;;;;3.83;0.73;;;;;;;10.74;65.14;97749.31;6804752;26;20237;-60
2024/04/10 00:10:14;;;;;;;0.93;0.77;;;;;;;10.72;65.66;97765.50;6803613;26;20237;-59
2024/04/10 00:13:17;;;;;;;0.70;0.50;;;;;;;10.75;65.77;97754.38;6804447;26;20241;-57
2024/04/10 00:16:19;;;;;;;1.67;0.70;;;;;;;10.66;66.43;97779.00;6805239;26;20349;-60
2024/04/10 00:19:22;;;;;;;0.33;0.33;;;;;;;10.64;66.32;97765.91;6802076;26;20233;-59
2024/04/10 00:22:26;;;;;;;2.20;0.40;;;;;;;10.64;66.55;97799.72;6767525;26;20249;-58
2024/04/10 00:25:29;;;;;;;0.80;0.47;;;;;;;10.62;66.51;97799.16;6803915;26;20276;-58
2024/04/10 00:28:32;;;;;;;3.57;0.57;;;;;;;10.59;66.47;97787.13;6773089;26;21105;-58
2024/04/10 00:31:34;;;;;;;0.60;0.57;;;;;;;10.44;67.09;97810.81;6797630;26;20238;-59
2024/04/10 00:34:37;;;;;;;0.87;0.60;;;;;;;10.37;67.54;97816.28;6803876;26;20240;-56
2024/04/10 00:37:40;;;;;;;1.70;0.50;;;;;;;10.37;67.03;97815.47;6803824;26;20237;-60
2024/04/10 00:40:42;;;;;;;0.70;0.70;;;;;;;10.30;67.61;97819.09;6802270;26;20242;-58
2024/04/10 00:43:45;;;;;;;0.60;0.60;;;;;;;10.29;68.04;97829.94;6804132;26;20720;-60
2024/04/10 00:46:48;;;;;;;0.90;0.70;;;;;;;10.32;67.03;97816.19;6802783;26;20512;-56
2024/04/10 00:49:51;;;;;;;0.60;0.57;;;;;;;10.27;67.39;97832.06;6801701;26;20243;-59
2024/04/10 00:52:54;;;;;;;1.23;0.50;;;;;;;10.33;66.45;97831.91;6802977;26;20233;-60
2024/04/10 00:55:57;;;;;;;1.00;0.60;;;;;;;10.35;67.12;97833.56;6806190;26;20351;-60
2024/04/10 00:59:00;;;;;;;0.40;0.40;;;;;;;10.28;67.79;97834.47;6808152;26;20332;-60
2024/04/10 01:02:07;;;;;;;1.10;0.60;;;;;;;10.30;66.82;97832.41;6766563;26;20237;-58
2024/04/10 01:05:10;;;;;;;0.73;0.60;;;;;;;10.36;66.30;97865.25;6807784;26;20295;-60
2024/04/10 01:08:12;;;;;;;2.07;0.40;;;;;;;10.31;66.29;97854.50;6802823;26;20332;-60
2024/04/10 01:11:15;;;;;;;0.83;0.70;;;;;;;10.19;66.12;97869.66;6807418;26;21075;-61
2024/04/10 01:14:18;;;;;;;0.73;0.50;;;;;;;10.19;66.50;97877.63;6807019;26;20629;-58
2024/04/10 01:17:21;;;;;;;0.70;0.60;;;;;;;10.21;65.75;97873.72;6805681;26;20278;-56
2024/04/10 01:20:23;;;;;;;0.50;0.50;;;;;;;10.20;65.29;97900.59;6775319;26;20673;-59
2024/04/10 01:23:26;;;;;;;0.73;0.70;;;;;;;10.19;65.01;97888.28;6807490;26;20234;-58
2024/04/10 01:26:29;;;;;;;1.13;0.77;;;;;;;10.17;64.59;97877.06;6808221;26;20676;-58
2024/04/10 01:29:32;;;;;;;0.90;0.63;;;;;;;10.09;64.79;97905.66;6807416;26;20237;-56
2024/04/10 01:32:34;;;;;;;1.10;0.50;;;;;;;10.03;65.02;97885.31;6802975;26;20596;-59
2024/04/10 01:35:37;;;;;;;0.73;0.73;;;;;;;10.07;64.67;97883.00;6802114;26;20285;-59
2024/04/10 01:38:40;;;;;;;0.50;0.50;;;;;;;10.07;65.38;97888.31;6807800;26;20238;-61
2024/04/10 01:41:43;;;;;;;0.70;0.63;;;;;;;10.04;66.02;97891.44;6805564;26;20274;-60
2024/04/10 01:44:45;;;;;;;0.60;0.60;;;;;;;10.04;66.86;97891.44;6807742;26;20232;-58
2024/04/10 01:47:48;;;;;;;0.70;0.70;;;;;;;9.99;67.55;97899.31;6769641;26;20238;-57
2024/04/10 01:50:51;;;;;;;2.30;0.57;;;;;;;9.99;67.62;97901.97;6808083;26;20239;-58
2024/04/10 01:53:53;;;;;;;1.47;0.80;;;;;;;9.97;68.91;97914.72;6805430;26;20346;-61
2024/04/10 01:56:56;;;;;;;1.30;0.70;;;;;;;9.91;69.81;97932.41;6807542;26;20234;-59
2024/04/10 01:59:58;;;;;;;0.70;0.70;;;;;;;9.84;69.10;97923.72;6802468;26;20277;-60
2024/04/10 02:03:01;;;;;;;2.23;0.60;;;;;;;9.87;70.06;97917.94;6807248;26;20284;-58
2024/04/10 02:06:04;;;;;;;1.70;0.90;;;;;;;9.68;70.57;97925.22;6806827;26;20233;-55
2024/04/10 02:09:06;;;;;;;0.87;0.80;;;;;;;9.48;71.33;97909.56;6807166;26;20280;-58
2024/04/10 02:12:09;;;;;;;0.93;0.83;;;;;;;9.57;71.28;97921.50;6806827;26;20291;-57
2024/04/10 02:15:12;;;;;;;0.90;0.90;;;;;;;9.56;72.21;97933.19;6800902;26;20287;-59
2024/04/10 02:18:14;;;;;;;0.90;0.80;;;;;;;9.53;72.15;97943.47;6805269;26;20393;-60
2024/04/10 02:21:17;;;;;;;1.50;1.17;;;;;;;9.51;72.00;97950.88;6806788;26;20289;-58
2024/04/10 02:24:20;;;;;;;1.80;1.17;;;;;;;9.40;73.79;97965.75;6806509;26;20629;-60
2024/04/10 02:27:22;;;;;;;1.10;1.10;;;;;;;9.33;73.99;97957.06;6803466;26;20236;-60
2024/04/10 02:30:25;;;;;;;1.40;1.30;;;;;;;9.37;73.96;97979.50;6799995;26;20241;-59
2024/04/10 02:33:27;;;;;;;1.47;1.37;;;;;;;9.41;74.21;97983.34;6806662;26;20234;-60
2024/04/10 02:36:30;;;;;;;3.00;1.30;;;;;;;9.33;74.38;97977.53;6805581;26;20251;-59
2024/04/10 02:39:33;;;;;;;2.80;1.10;;;;;;;9.27;74.93;97981.91;6805451;26;20248;-60
2024/04/10 02:42:35;;;;;;;2.80;1.10;;;;;;;9.21;75.29;97998.72;6802489;26;20668;-59
2024/04/10 02:45:38;;;;;;;1.20;1.10;;;;;;;9.18;75.25;98007.97;6801832;26;20231;-58
2024/04/10 02:48:41;;;;;;;1.30;1.17;;;;;;;9.26;75.70;98013.00;6802294;26;20239;-58
2024/04/10 02:51:44;;;;;;;1.07;1.03;;;;;;;9.21;76.50;98012.84;6806472;26;20231;-60
2024/04/10 02:54:46;;;;;;;0.90;0.90;;;;;;;9.10;76.45;98015.44;6805486;26;20355;-59
2024/04/10 02:57:49;;;;;;;1.43;1.20;;;;;;;9.15;77.73;98018.22;6805475;26;20354;-61
2024/04/10 03:00:54;;;;;;;3.67;1.33;;;;;;;9.10;77.58;98031.38;6773724;26;20226;-59
2024/04/10 03:03:57;;;;;;;1.33;1.23;;;;;;;8.90;77.85;98050.22;6806778;26;20219;-60
2024/04/10 03:07:03;;;;;;;2.13;1.43;;;;;;;8.84;78.34;98025.34;6806048;26;20265;-62
2024/04/10 03:10:08;;;;;;;3.90;1.37;;;;;;;8.82;78.69;98048.69;6806089;26;20285;-62
2024/04/10 03:13:11;;;;;;;2.33;1.27;;;;;;;8.66;79.01;98036.78;6765313;26;20602;-60
2024/04/10 03:16:14;;;;;;;1.40;1.30;;;;;;;8.76;79.37;98066.28;6805201;26;20284;-60
2024/04/10 03:19:19;;;;;;;1.97;1.57;;;;;;;8.62;80.00;98048.91;6799013;26;20285;-64
2024/04/10 03:22:21;;;;;;;1.73;1.50;;;;;;;8.62;80.33;98032.97;6801404;26;20238;-62
2024/04/10 03:25:24;;;;;;;1.73;1.30;;;;;;;8.63;80.04;98060.31;6801539;26;20642;-61
2024/04/10 03:28:26;;;;;;;4.20;1.27;;;;;;;8.55;80.96;98042.00;6796339;26;20298;-60
2024/04/10 03:31:29;;;;;;;2.13;1.33;;;;;;;8.48;81.52;98066.00;6757146;26;20262;-57
2024/04/10 03:34:32;;;;;;;2.17;1.30;;;;;;;8.50;81.14;98062.06;6760549;26;20279;-58
2024/04/10 03:37:35;;;;;;;1.40;1.20;;;;;;;8.44;82.23;98081.53;6758418;26;20345;-61
2024/04/10 03:40:38;;;;;;;3.27;1.40;;;;;;;8.55;81.71;98069.38;6751573;26;20285;-58
2024/04/10 03:43:41;;;;;;;0.90;0.90;;;;;;;8.49;81.78;98091.50;6756900;26;20520;-59
2024/04/10 03:46:46;;;;;;;2.23;1.10;;;;;;;8.42;82.26;98080.09;6750895;26;20285;-60
2024/04/10 03:49:49;;;;;;;1.30;1.20;;;;;;;8.45;82.72;98090.31;6787760;26;20235;-59
2024/04/10 03:52:52;;;;;;;1.30;1.20;;;;;;;8.43;82.17;98077.25;6775628;26;20928;-59
2024/04/10 03:55:55;;;;;;;1.20;1.10;;;;;;;8.39;82.92;98084.03;6763640;26;20727;-61
2024/04/10 03:58:58;;;;;;;1.63;1.20;;;;;;;8.33;83.01;98116.72;6758104;26;20235;-58
2024/04/10 04:02:00;;;;;;;1.83;1.20;;;;;;;8.23;84.02;98089.84;6757582;26;20845;-60
2024/04/10 04:05:03;;;;;;;1.23;1.13;;;;;;;8.26;83.41;98106.16;6757138;26;20228;-57
2024/04/10 04:08:06;;;;;;;1.20;1.00;;;;;;;8.25;83.15;98101.88;6761571;26;20276;-62
2024/04/10 04:11:08;;;;;;;1.40;1.10;;;;;;;8.33;82.74;98107.97;6766257;26;20237;-60
2024/04/10 04:14:11;;;;;;;1.20;1.07;;;;;;;8.23;83.69;98111.91;6766708;26;20717;-57
2024/04/10 04:17:14;;;;;;;1.70;1.20;;;;;;;8.23;82.84;98113.75;6780750;26;20243;-60
2024/04/10 04:20:16;;;;;;;1.97;1.00;;;;;;;8.30;82.64;98111.84;6769719;26;20775;-59
2024/04/10 04:23:19;;;;;;;1.83;1.10;;;;;;;8.27;82.04;98122.88;6760456;26;20232;-58
2024/04/10 04:26:21;;;;;;;0.97;0.90;;;;;;;8.29;81.55;98136.75;6733814;26;20238;-57
2024/04/10 04:29:24;;;;;;;1.43;1.23;;;;;;;8.28;81.25;98140.44;6792759;26;20293;-57
2024/04/10 04:32:27;;;;;;;1.17;1.07;;;;;;;8.26;82.30;98148.59;6778726;26;20236;-56
2024/04/10 04:35:30;;;;;;;1.50;1.40;;;;;;;8.23;81.09;98142.94;6767881;26;20282;-59
2024/04/10 04:38:33;;;;;;;3.77;1.40;;;;;;;8.26;81.63;98150.44;6737305;26;20236;-57
2024/04/10 04:41:36;;;;;;;1.60;1.50;;;;;;;8.18;81.16;98150.72;6789019;26;20309;-60
2024/04/10 04:44:39;;;;;;;1.30;1.20;;;;;;;8.16;81.27;98156.22;6783015;26;20282;-59
2024/04/10 04:47:41;;;;;;;1.70;1.20;;;;;;;8.20;81.38;98156.63;6767499;26;20243;-61
2024/04/10 04:50:46;;;;;;;1.13;1.03;;;;;;;8.19;81.32;98157.66;6780024;26;20288;-61
2024/04/10 04:53:49;;;;;;;1.30;1.00;;;;;;;8.22;81.87;98151.91;6763762;26;20269;-60
2024/04/10 04:56:52;;;;;;;0.97;0.97;;;;;;;8.31;80.42;98147.97;6769265;26;20236;-60
2024/04/10 04:59:54;;;;;;;4.37;1.00;;;;;;;8.38;80.65;98156.75;6765940;26;20237;-58
2024/04/10 05:02:57;;;;;;;1.20;1.13;;;;;;;8.30;80.99;98167.59;6761943;26;20803;-60
2024/04/10 05:06:04;;;;;;;0.90;0.90;;;;;;;8.32;82.01;98170.81;6723824;26;20732;-59
2024/04/10 05:09:09;;;;;;;0.73;0.73;;;;;;;8.41;81.09;98166.91;6760518;26;20243;-59
2024/04/10 05:12:12;;;;;;;2.53;0.80;;;;;;;8.36;80.44;98182.66;6757410;26;20799;-58
2024/04/10 05:15:15;;;;;;;1.03;0.80;;;;;;;8.33;82.42;98191.06;6769209;26;20244;-55
2024/04/10 05:18:18;;;;;;;1.80;0.90;;;;;;;8.33;81.41;98206.16;6756414;26;20286;-57
2024/04/10 05:21:20;;;;;;;0.97;0.97;;;;;;;8.39;80.74;98181.44;6760127;26;20243;-59
2024/04/10 05:24:23;;;;;;;3.47;1.33;;;;;;;8.35;80.42;98207.56;6771488;26;20587;-59
2024/04/10 05:27:27;;;;;;;1.37;1.27;;;;;;;8.38;82.81;98199.22;6771751;26;20278;-60
2024/04/10 05:30:30;;;;;;;1.30;1.20;;;;;;;8.40;81.60;98204.31;6757313;26;20240;-58
2024/04/10 05:33:33;;;;;;;1.53;1.43;;;;;;;8.28;81.46;98217.44;6767253;26;20350;-60
2024/04/10 05:36:36;;;;;;;1.80;1.20;;;;;;;8.38;81.86;98231.06;6766484;26;20269;-56
2024/04/10 05:39:38;;;;;;;1.43;1.30;;;;;;;8.38;81.86;98232.91;6773281;26;20289;-61
2024/04/10 05:42:42;;;;;;;1.47;1.37;;;;;;;8.39;83.07;98245.97;6760888;26;20361;-59
2024/04/10 05:45:45;;;;;;;1.60;1.50;;;;;;;8.36;82.59;98251.69;6760543;26;20230;-58
2024/04/10 05:48:48;;;;;;;1.60;1.17;;;;;;;8.36;82.07;98256.16;6778877;26;20304;-58
2024/04/10 05:51:50;;;;;;;2.00;1.10;;;;;;;8.41;81.63;98269.63;6773057;26;20246;-57
2024/04/10 05:54:53;;;;;;;1.73;1.20;;;;;;;8.38;81.65;98273.56;6765332;26;20343;-58
2024/04/10 05:57:56;;;;;;;1.27;1.00;;;;;;;8.42;81.29;98266.78;6769035;26;20247;-58
2024/04/10 06:01:05;;;;;;;2.07;1.03;;;;;;;8.42;80.72;98264.13;6770471;26;20240;-55
2024/04/10 06:04:07;;;;;;;0.90;0.90;;;;;;;8.42;81.32;98261.47;6779224;26;20651;-59
2024/04/10 06:07:10;;;;;;;1.10;0.90;;;;;;;8.49;80.40;98267.56;6757671;26;20286;-61
2024/04/10 06:10:13;;;;;;;1.53;1.23;;;;;;;8.52;82.33;98293.69;6760706;26;20238;-60
2024/04/10 06:13:15;;;;;;;4.00;1.40;;;;;;;8.42;80.71;98273.91;6759429;26;20282;-60
2024/04/10 06:16:19;;;;;;;0.87;0.87;;;;;;;8.50;80.13;98289.59;6758169;26;20240;-56
2024/04/10 06:19:21;;;;;;;1.47;1.10;;;;;;;8.46;80.87;98289.22;6729108;26;20243;-59
2024/04/10 06:22:24;;;;;;;1.37;1.27;;;;;;;8.42;81.24;98284.53;6761708;26;20843;-61
2024/04/10 06:25:27;;;;;;;2.37;1.13;;;;;;;8.41;80.62;98286.38;6772065;26;20227;-58
2024/04/10 06:28:30;;;;;;;2.23;1.20;;;;;;;8.40;81.67;98302.53;6782360;26;20238;-59
2024/04/10 06:31:33;;;;;;;1.13;1.03;;;;;;;8.44;80.82;98299.25;6759083;26;21307;-60
2024/04/10 06:34:36;;;;;;;1.57;1.20;;;;;;;8.44;81.89;98293.13;6761183;26;20753;-60
2024/04/10 06:37:39;;;;;;;1.97;1.13;;;;;;;8.48;80.27;98289.84;6788600;26;20222;-60
2024/04/10 06:40:47;;;;;;;1.53;1.00;;;;;;;8.45;81.57;98289.44;6735831;26;20251;-59
2024/04/10 06:43:50;;;;;;;1.50;1.20;;;;;;;8.48;80.33;98294.34;6777993;26;20244;-60
2024/04/10 06:46:52;;;;;;;1.70;1.10;;;;;;;8.63;79.98;98302.81;6775015;26;20227;-61
2024/04/10 06:49:55;;;;;;;1.10;1.00;;;;;;;8.65;78.68;98295.44;6776457;26;20230;-56
2024/04/10 06:52:58;;;;;;;2.60;0.90;;;;;;;8.65;79.11;98303.41;6776908;26;20241;-59
2024/04/10 06:56:02;;;;;;;3.97;1.50;;;;;;;8.68;79.61;98316.25;6762065;26;20307;-58
2024/04/10 06:59:05;;;;;;;2.37;1.10;;;;;;;8.55;79.13;98296.94;6769692;26;20291;-61
2024/04/10 07:02:07;;;;;;;2.63;1.43;;;;;;;8.70;79.26;98327.47;6753146;26;20300;-58
2024/04/10 07:05:10;;;;;;;1.27;1.17;;;;;;;8.71;79.26;98317.66;6758537;26;20340;-62
2024/04/10 07:08:13;;;;;;;1.87;1.37;;;;;;;8.75;78.95;98329.50;6769941;26;20234;-60
2024/04/10 07:11:22;;;;;;;1.70;1.20;;;;;;;8.75;78.35;98337.47;6749223;26;20236;-60
2024/04/10 07:14:28;;;;;;;1.20;1.10;;;;;;;8.88;78.73;98331.28;6771310;26;20315;-59
2024/04/10 07:17:31;;;;;;;1.40;1.30;;;;;;;8.81;79.37;98333.94;6775760;26;20291;-61
2024/04/10 07:20:34;;;;;;;2.00;1.30;;;;;;;8.80;78.89;98327.00;6766652;26;21064;-61
2024/04/10 07:23:38;;;;;;;1.40;1.30;;;;;;;8.85;79.78;98321.06;6763175;26;20356;-59
2024/04/10 07:26:40;;;;;;;4.10;1.43;;;;;;;8.79;78.08;98347.47;6765421;26;20290;-59
2024/04/10 07:29:44;;;;;;;1.50;1.40;;;;;;;8.80;78.46;98345.59;6760123;26;20286;-54
2024/04/10 07:32:47;;;;;;;1.93;1.30;;;;;;;8.75;77.81;98375.47;6786114;26;20314;-61
2024/04/10 07:35:50;;;;;;;1.80;1.20;;;;;;;8.79;79.43;98352.78;6774393;26;20391;-61
2024/04/10 07:38:53;;;;;;;2.67;1.33;;;;;;;8.79;78.96;98358.09;6762844;26;20290;-61
2024/04/10 07:41:56;;;;;;;2.27;1.33;;;;;;;8.77;79.00;98362.00;6759048;26;20277;-61
2024/04/10 07:44:59;;;;;;;1.77;1.43;;;;;;;8.83;78.67;98366.44;6770755;26;20319;-60
2024/04/10 07:48:02;;;;;;;2.87;1.40;;;;;;;8.89;78.15;98373.56;6763907;26;20235;-60
2024/04/10 07:51:09;;;;;;;1.43;1.33;;;;;;;8.86;78.94;98366.00;6780638;26;20296;-61
2024/04/10 07:54:12;;;;;;;2.63;1.57;;;;;;;8.94;78.01;98368.41;6760769;26;20236;-61
2024/04/10 07:57:15;;;;;;;1.63;1.43;;;;;;;9.01;78.63;98371.03;6788769;26;20277;-60
2024/04/10 08:00:17;;;;;;;2.97;1.60;;;;;;;8.92;78.88;98370.47;6734740;26;20278;-59
2024/04/10 08:03:20;;;;;;;2.60;1.50;;;;;;;8.91;78.35;98381.31;6770753;26;20233;-60
2024/04/10 08:06:23;;;;;;;2.10;1.60;;;;;;;8.94;77.96;98383.53;6764709;26;20244;-60
2024/04/10 08:09:25;;;;;;;1.90;1.60;;;;;;;8.91;78.79;98387.44;6762880;26;20259;-60
2024/04/10 08:12:28;;;;;;;3.83;1.37;;;;;;;8.96;77.30;98414.19;6758251;26;20244;-62
2024/04/10 08:15:31;;;;;;;4.17;1.80;;;;;;;8.96;78.68;98376.97;6763480;26;20236;-60
2024/04/10 08:18:38;;;;;;;4.10;1.50;;;;;;;8.90;78.28;98399.09;6763411;26;20232;-60
2024/04/10 08:21:41;;;;;;;2.73;1.60;;;;;;;9.02;78.12;98417.84;6763173;26;20231;-61
2024/04/10 08:24:43;;;;;;;2.70;1.50;;;;;;;9.06;76.55;98405.75;6774298;26;20229;-60
2024/04/10 08:27:46;;;;;;;1.70;1.60;;;;;;;8.99;79.15;98440.34;6763554;26;20239;-61
2024/04/10 08:30:49;;;;;;;4.20;1.80;;;;;;;9.04;78.40;98445.00;6757035;26;20289;-60
2024/04/10 08:33:52;;;;;;;4.37;2.10;;;;;;;8.97;78.49;98455.69;6763167;26;20232;-60
2024/04/10 08:36:56;;;;;;;1.57;1.47;;;;;;;8.89;77.92;98447.94;6763591;26;20290;-59
2024/04/10 08:39:59;;;;;;;3.50;1.80;;;;;;;9.10;77.86;98465.41;6763415;26;20290;-59
2024/04/10 08:43:02;;;;;;;1.77;1.50;;;;;;;9.06;78.33;98480.16;6763142;26;20281;-60
2024/04/10 08:46:08;;;;;;;2.77;1.63;;;;;;;9.14;76.64;98489.75;6762649;26;20305;-61
2024/04/10 08:49:11;;;;;;;1.90;1.60;;;;;;;9.07;78.54;98481.00;6762820;26;20383;-58
2024/04/10 08:52:15;;;;;;;3.57;1.80;;;;;;;9.08;78.03;98491.41;6732975;26;20223;-61
2024/04/10 08:55:18;;;;;;;2.00;1.57;;;;;;;9.03;78.41;98492.03;6763884;26;20247;-58
2024/04/10 08:58:21;;;;;;;2.53;1.60;;;;;;;9.11;77.62;98504.25;6762350;26;20247;-60
2024/04/10 09:01:27;;;;;;;1.53;1.43;;;;;;;9.19;78.31;98490.72;6763010;26;20731;-58
2024/04/10 09:04:31;;;;;;;3.40;1.70;;;;;;;9.20;77.58;98491.53;6762301;26;20282;-61
2024/04/10 09:07:34;;;;;;;2.47;1.87;;;;;;;9.03;77.82;98483.25;6761551;26;20275;-58
2024/04/10 09:10:37;;;;;;;1.87;1.77;;;;;;;9.03;77.75;98515.97;6762044;26;20240;-60
2024/04/10 09:13:39;;;;;;;2.27;1.80;;;;;;;9.03;77.63;98518.63;6762016;26;20236;-61
2024/04/10 09:16:42;;;;;;;2.77;1.87;;;;;;;8.96;78.24;98517.81;6762861;26;21663;-60
2024/04/10 09:19:45;;;;;;;2.20;2.00;;;;;;;9.02;77.86;98511.69;6763121;26;20299;-57
2024/04/10 09:22:59;;;;;;;2.73;1.57;;;;;;;8.99;77.84;98513.94;6762145;26;20299;-58
2024/04/10 09:26:02;;;;;;;2.53;2.17;;;;;;;9.10;78.42;98517.78;6762978;26;20275;-57
2024/04/10 09:29:18;;;;;;;3.00;2.13;;;;;;;9.09;77.52;98506.31;6762694;26;20290;-61
2024/04/10 09:32:22;;;;;;;1.90;1.60;;;;;;;9.24;77.82;98519.34;6756358;26;20232;-57
2024/04/10 09:35:26;;;;;;;1.77;1.67;;;;;;;9.33;79.23;98522.56;6761676;26;20242;-56
2024/04/10 09:38:29;;;;;;;3.10;1.80;;;;;;;9.12;77.03;98524.53;6763052;26;20243;-60
2024/04/10 09:41:35;;;;;;;1.70;1.60;;;;;;;9.19;77.55;98530.59;6730329;26;20295;-59
2024/04/10 09:44:42;;;;;;;2.90;1.67;;;;;;;9.28;77.24;98536.50;6729302;26;20343;-61
2024/04/10 09:47:45;;;;;;;2.53;1.50;;;;;;;9.34;76.96;98548.94;6759478;26;20240;-60
2024/04/10 09:50:49;;;;;;;3.37;1.40;;;;;;;9.35;77.08;98555.88;6731328;26;20321;-63
2024/04/10 09:53:53;;;;;;;2.63;1.40;;;;;;;9.52;77.11;98570.34;6759847;26;20244;-61
2024/04/10 09:56:57;;;;;;;1.40;1.30;;;;;;;9.46;78.00;98554.44;6762132;26;20232;-60
2024/04/10 10:00:01;;;;;;;1.90;1.40;;;;;;;9.53;76.06;98571.16;6728163;26;20240;-62
2024/04/10 10:03:11;;;;;;;2.37;1.27;;;;;;;9.43;76.39;98584.09;6757630;26;20220;-61
2024/04/10 10:06:17;;;;;;;2.70;1.40;;;;;;;9.47;76.80;98580.81;6762073;26;20229;-58
2024/04/10 10:09:24;;;;;;;1.20;1.10;;;;;;;9.54;77.60;98588.72;6762140;26;20783;-58
2024/04/10 10:12:27;;;;;;;3.27;1.20;;;;;;;9.52;75.44;98585.47;6760052;26;20308;-60
2024/04/10 10:15:30;;;;;;;1.67;1.37;;;;;;;9.41;76.43;98573.69;6761499;26;20295;-62
2024/04/10 10:18:32;;;;;;;1.60;1.37;;;;;;;9.42;77.68;98591.25;6762443;26;20227;-58
2024/04/10 10:21:36;;;;;;;3.80;1.50;;;;;;;9.52;77.36;98606.75;6729780;26;20287;-57
2024/04/10 10:24:38;;;;;;;1.90;1.43;;;;;;;9.42;78.56;98598.41;6758533;26;20236;-58
2024/04/10 10:27:42;;;;;;;1.40;1.30;;;;;;;9.63;79.23;98619.38;6759052;26;20340;-61
2024/04/10 10:30:45;;;;;;;1.93;1.50;;;;;;;9.68;78.12;98616.09;6764832;26;20242;-59
2024/04/10 10:33:48;;;;;;;1.50;1.40;;;;;;;9.60;77.01;98608.34;6761472;26;20232;-58
2024/04/10 10:36:51;;;;;;;1.77;1.40;;;;;;;9.88;76.27;98610.66;6757474;26;20240;-60
2024/04/10 10:39:55;;;;;;;2.67;1.73;;;;;;;9.89;75.48;98610.44;6708672;26;20454;-62
2024/04/10 10:43:04;;;;;;;2.40;1.80;;;;;;;9.68;78.36;98595.63;6765381;26;21026;-60
2024/04/10 10:46:08;;;;;;;1.90;1.77;;;;;;;9.85;79.00;98621.72;6762844;26;20236;-61
2024/04/10 10:49:10;;;;;;;3.03;2.37;;;;;;;10.00;76.94;98614.25;6773132;26;20240;-62
2024/04/10 10:52:13;;;;;;;3.53;1.70;;;;;;;9.64;77.17;98606.91;6748107;26;20232;-59
2024/04/10 10:55:16;;;;;;;4.03;2.03;;;;;;;9.65;76.88;98592.56;6744522;26;20310;-59
2024/04/10 10:58:19;;;;;;;2.23;1.80;;;;;;;9.76;76.95;98613.19;6769211;26;20336;-62
2024/04/10 11:01:21;;;;;;;1.73;1.63;;;;;;;9.99;77.87;98609.97;6755711;26;20236;-58
2024/04/10 11:04:24;;;;;;;1.80;1.70;;;;;;;10.00;76.53;98620.41;6737021;26;20778;-62
2024/04/10 11:07:27;;;;;;;3.57;1.90;;;;;;;9.91;76.53;98618.22;6741447;26;20289;-62
2024/04/10 11:10:30;;;;;;;1.90;1.80;;;;;;;9.88;75.18;98619.44;6765466;26;20287;-57
2024/04/10 11:13:33;;;;;;;3.23;1.70;;;;;;;9.79;76.87;98618.06;6787687;26;20239;-61
2024/04/10 11:16:36;;;;;;;2.37;1.80;;;;;;;9.75;76.22;98620.38;6784132;26;20288;-57
2024/04/10 11:19:38;;;;;;;1.77;1.67;;;;;;;9.92;76.43;98652.59;6779676;26;20266;-60
2024/04/10 11:23:01;;;;;;;3.47;1.87;;;;;;;9.92;76.04;98627.84;6763095;26;20673;-61
2024/04/10 11:26:04;;;;;;;2.80;1.77;;;;;;;10.08;74.13;98627.31;6791779;26;20289;-61
2024/04/10 11:29:07;;;;;;;2.20;1.80;;;;;;;9.97;75.74;98630.66;6731208;26;20599;-63
2024/04/10 11:32:12;;;;;;;1.53;1.43;;;;;;;10.15;76.27;98622.78;6710332;26;20235;-57
2024/04/10 11:35:15;;;;;;;1.80;1.70;;;;;;;10.11;75.00;98623.41;6715887;26;20275;-59
2024/04/10 11:38:18;;;;;;;2.03;1.20;;;;;;;10.20;73.19;98636.25;6714221;26;20320;-58
2024/04/10 11:41:20;;;;;;;1.30;1.30;;;;;;;10.24;73.24;98644.63;6715481;26;20317;-60
2024/04/10 11:44:25;;;;;;;1.57;1.47;;;;;;;10.24;71.98;98632.13;6712040;26;20624;-60
2024/04/10 11:47:32;;;;;;;1.77;1.50;;;;;;;10.33;73.51;98644.16;6716113;26;20253;-60
2024/04/10 11:50:35;;;;;;;2.27;1.60;;;;;;;10.18;72.85;98640.97;6714779;26;20277;-60
2024/04/10 11:53:38;;;;;;;2.87;1.70;;;;;;;10.20;73.33;98652.22;6710265;26;20234;-57
2024/04/10 11:56:41;;;;;;;1.80;1.60;;;;;;;10.39;72.14;98647.81;6712959;26;20240;-61
2024/04/10 11:59:47;;;;;;;1.70;1.50;;;;;;;10.21;72.14;98661.84;6715265;26;20285;-61
2024/04/10 12:02:49;;;;;;;1.97;1.40;;;;;;;10.26;73.92;98658.56;6683852;26;20239;-60
2024/04/10 12:05:52;;;;;;;1.40;1.30;;;;;;;10.31;72.23;98664.06;6713881;26;20237;-60
2024/04/10 12:08:54;;;;;;;1.97;1.40;;;;;;;10.21;73.63;98645.88;6715474;26;20736;-59
2024/04/10 12:11:57;;;;;;;1.73;1.23;;;;;;;10.24;72.81;98652.63;6715385;26;20322;-61
2024/04/10 12:15:00;;;;;;;1.77;1.67;;;;;;;10.35;71.69;98657.28;6714213;26;20256;-59
2024/04/10 12:18:03;;;;;;;1.40;1.30;;;;;;;10.22;72.33;98663.47;6715332;26;20348;-57
2024/04/10 12:21:08;;;;;;;2.07;1.60;;;;;;;10.39;73.25;98647.00;6669826;26;20242;-60
2024/04/10 12:24:11;;;;;;;2.97;1.40;;;;;;;10.59;71.05;98624.50;6715022;26;20243;-60
2024/04/10 12:27:14;;;;;;;1.70;1.60;;;;;;;10.79;70.10;98631.50;6713824;26;20234;-61
2024/04/10 12:30:17;;;;;;;2.67;1.80;;;;;;;11.00;69.81;98639.06;6748600;26;20739;-60
2024/04/10 12:33:20;;;;;;;1.57;1.47;;;;;;;10.83;71.84;98646.81;6786561;26;20239;-58
2024/04/10 12:39:45;;;;;;;3.80;1.30;;;;;;;10.78;69.77;98641.31;6758756;26;20238;-60
2024/04/10 12:42:48;;;;;;;2.83;1.67;;;;;;;10.90;73.12;98641.44;6758790;26;20286;-59
2024/04/10 12:45:51;;;;;;;2.03;1.70;;;;;;;10.93;71.04;98635.66;6756667;26;20237;-59
2024/04/10 12:48:54;;;;;;;3.83;1.63;;;;;;;11.03;69.44;98638.66;6783890;26;20286;-61
2024/04/10 12:51:57;;;;;;;1.60;1.47;;;;;;;10.80;69.39;98655.25;6765865;26;20342;-60
2024/04/10 12:55:00;;;;;;;7.00;1.73;;;;;;;10.76;69.98;98643.41;6767527;26;20309;-57
2024/04/10 12:58:03;;;;;;;2.20;1.37;;;;;;;10.74;71.20;98644.69;6793852;26;20280;-59
2024/04/10 13:01:06;;;;;;;2.67;1.60;;;;;;;10.94;70.49;98655.97;6777466;26;20242;-59
2024/04/10 13:04:08;;;;;;;3.17;1.73;;;;;;;11.03;70.15;98651.13;6767630;26;20735;-60
2024/04/10 13:07:13;;;;;;;2.80;1.87;;;;;;;10.81;70.33;98648.91;6770174;26;20234;-58
2024/04/10 13:10:16;;;;;;;3.20;1.70;;;;;;;11.00;71.87;98664.94;6730480;26;20345;-60
2024/04/10 13:13:19;;;;;;;4.50;2.20;;;;;;;11.03;69.64;98643.13;6788071;26;20232;-60
2024/04/10 13:16:36;;;;;;;2.60;1.67;;;;;;;10.96;71.11;98655.72;6774382;26;20331;-58
2024/04/10 13:19:39;;;;;;;1.73;1.63;;;;;;;10.74;71.36;98666.00;6760986;26;20250;-61
2024/04/10 13:22:42;;;;;;;2.00;1.80;;;;;;;10.77;71.28;98660.22;6759969;26;20278;-60
2024/04/10 13:25:47;;;;;;;3.63;2.00;;;;;;;10.72;70.72;98660.88;6767997;26;20233;-59
2024/04/10 13:28:50;;;;;;;2.27;2.07;;;;;;;10.82;72.83;98642.53;6762356;26;20240;-60
2024/04/10 13:31:52;;;;;;;2.53;1.80;;;;;;;10.96;70.65;98650.41;6768877;26;20235;-60
2024/04/10 13:34:55;;;;;;;2.93;2.10;;;;;;;11.02;73.36;98663.66;6709585;26;20292;-59
2024/04/10 13:37:57;;;;;;;3.80;2.30;;;;;;;11.13;69.98;98662.09;6759811;26;20230;-57
2024/04/10 13:41:00;;;;;;;2.80;2.03;;;;;;;11.32;70.64;98653.06;6782935;26;20290;-59
2024/04/10 13:44:04;;;;;;;2.23;1.90;;;;;;;11.20;69.04;98656.72;6770593;26;20272;-55
2024/04/10 13:47:07;;;;;;;2.30;1.93;;;;;;;10.99;68.89;98665.97;6763473;26;20242;-58
2024/04/10 13:50:10;;;;;;;2.23;1.87;;;;;;;11.10;71.21;98667.91;6730624;26;20275;-58
2024/04/10 13:53:12;;;;;;;4.07;2.17;;;;;;;10.97;69.31;98684.84;6760833;26;20382;-57
2024/04/10 13:56:16;;;;;;;2.03;1.90;;;;;;;10.97;72.64;98676.03;6772244;26;20271;-59
2024/04/10 13:59:18;;;;;;;5.03;2.43;;;;;;;11.05;72.80;98673.09;6730416;26;20328;-58
2024/04/10 14:02:22;;;;;;;3.60;2.10;;;;;;;11.10;70.93;98678.56;6773537;26;20279;-59
2024/04/10 14:05:25;;;;;;;5.20;2.30;;;;;;;11.11;70.89;98673.00;6784539;26;20278;-60
2024/04/10 14:08:30;;;;;;;3.43;2.33;;;;;;;11.03;70.07;98675.97;6737981;26;20287;-59
2024/04/10 14:11:32;;;;;;;3.93;2.20;;;;;;;11.06;70.77;98683.50;6765775;26;20304;-56
2024/04/10 14:14:35;;;;;;;2.20;2.00;;;;;;;11.07;69.92;98679.00;6761594;26;20286;-57
2024/04/10 14:17:40;;;;;;;2.33;1.70;;;;;;;11.00;69.82;98684.41;6771289;26;20281;-57
2024/04/10 14:20:43;;;;;;;3.70;1.73;;;;;;;11.09;71.49;98683.09;6759522;26;20326;-59
2024/04/10 14:23:46;;;;;;;9.13;2.10;;;;;;;11.18;71.00;98685.44;6730402;26;20749;-59
2024/04/10 14:26:48;;;;;;;2.93;1.73;;;;;;;11.15;69.81;98694.72;6765097;26;20232;-57
2024/04/10 14:29:52;;;;;;;3.07;1.70;;;;;;;11.06;69.95;98690.72;6770597;26;20242;-59
2024/04/10 14:32:55;;;;;;;2.00;1.80;;;;;;;11.00;69.31;98687.06;6777895;26;20241;-58